createdAt,value
2019-04-30T00:02:22.488Z,5.47
2019-04-30T00:04:51.711Z,5.77
2019-04-30T00:07:21.768Z,6.00
2019-04-30T00:09:54.083Z,5.90
2019-04-30T00:12:25.768Z,5.23
2019-04-30T00:14:55.137Z,5.80
2019-04-30T00:17:25.649Z,5.50
2019-04-30T00:19:59.842Z,5.40
2019-04-30T00:22:33.884Z,5.60
2019-04-30T00:24:57.115Z,5.20
2019-04-30T00:27:30.284Z,4.97
2019-04-30T00:30:00.266Z,5.73
2019-04-30T00:32:30.204Z,5.47
2019-04-30T00:34:59.601Z,5.37
2019-04-30T00:37:30.671Z,5.83
2019-04-30T00:40:00.105Z,5.50
2019-04-30T00:42:32.906Z,5.20
2019-04-30T00:45:06.640Z,5.67
2019-04-30T00:47:35.168Z,5.43
2019-04-30T00:50:08.284Z,4.80
2019-04-30T00:52:37.511Z,5.50
2019-04-30T00:55:09.013Z,5.17
2019-04-30T00:57:43.572Z,5.63
2019-04-30T01:00:12.423Z,5.03
2019-04-30T01:02:48.199Z,5.17
2019-04-30T01:05:19.833Z,5.17
2019-04-30T01:08:04.951Z,4.87
2019-04-30T01:10:34.802Z,5.67
2019-04-30T01:13:08.132Z,6.13
2019-04-30T01:15:43.999Z,5.07
2019-04-30T01:18:11.588Z,5.83
2019-04-30T01:20:53.812Z,5.10
2019-04-30T01:23:21.626Z,4.97
2019-04-30T01:25:51.530Z,5.60
2019-04-30T01:28:24.298Z,5.93
2019-04-30T01:30:59.801Z,5.77
2019-04-30T01:33:34.659Z,5.77
2019-04-30T01:36:16.073Z,5.80
2019-04-30T01:38:52.538Z,5.30
2019-04-30T01:41:48.814Z,6.17
2019-04-30T01:44:19.513Z,5.00
2019-04-30T01:46:53.090Z,5.53
2019-04-30T01:49:41.961Z,5.50
2019-04-30T01:52:06.649Z,5.67
2019-04-30T01:54:41.126Z,5.70
2019-04-30T01:57:39.039Z,5.60
2019-04-30T02:00:25.240Z,5.47
2019-04-30T02:02:54.514Z,5.57
2019-04-30T02:05:23.833Z,5.33
2019-04-30T02:07:54.406Z,6.07
2019-04-30T02:10:32.324Z,5.87
2019-04-30T02:13:01.330Z,6.10
2019-04-30T02:15:30.765Z,5.80
2019-04-30T02:18:00.726Z,5.40
2019-04-30T02:20:32.288Z,6.00
2019-04-30T02:23:01.648Z,6.33
2019-04-30T02:25:30.978Z,6.13
2019-04-30T02:28:00.386Z,6.47
2019-04-30T02:30:30.767Z,6.27
2019-04-30T02:33:04.373Z,6.47
2019-04-30T02:35:46.519Z,6.20
2019-04-30T02:38:26.108Z,6.53
2019-04-30T02:40:59.557Z,6.50
2019-04-30T02:43:33.789Z,6.87
2019-04-30T02:46:10.065Z,6.57
2019-04-30T02:48:40.669Z,6.40
2019-04-30T02:51:12.635Z,6.20
2019-04-30T02:54:09.769Z,6.33
2019-04-30T02:56:40.105Z,6.57
2019-04-30T02:59:10.423Z,6.57
2019-04-30T03:01:43.595Z,6.50
2019-04-30T03:04:22.501Z,6.10
2019-04-30T03:06:54.675Z,6.17
2019-04-30T03:09:23.914Z,6.43
2019-04-30T03:11:53.359Z,6.37
2019-04-30T03:14:22.930Z,6.73
2019-04-30T03:17:17.334Z,6.57
2019-04-30T03:19:56.360Z,6.40
2019-04-30T03:22:31.820Z,6.60
2019-04-30T03:25:04.857Z,6.17
2019-04-30T03:27:34.098Z,6.17
2019-04-30T03:30:12.645Z,6.47
2019-04-30T03:32:43.027Z,6.70
2019-04-30T03:35:13.362Z,6.67
2019-04-30T03:37:49.548Z,6.50
2019-04-30T03:40:20.241Z,7.20
2019-04-30T03:42:49.572Z,6.33
2019-04-30T03:45:20.405Z,7.70
2019-04-30T03:47:53.887Z,8.00
2019-04-30T03:50:32.857Z,7.33
2019-04-30T03:53:00.439Z,7.73
2019-04-30T03:55:29.857Z,7.83
2019-04-30T03:58:01.173Z,7.50
2019-04-30T04:00:55.866Z,8.10
2019-04-30T04:03:25.155Z,8.23
2019-04-30T04:06:16.108Z,7.93
2019-04-30T04:08:51.474Z,9.70
2019-04-30T04:11:29.720Z,9.33
2019-04-30T04:13:59.828Z,9.47
2019-04-30T04:16:32.543Z,10.00
2019-04-30T04:19:04.914Z,9.57
2019-04-30T04:21:34.036Z,10.70
2019-04-30T04:24:05.285Z,8.83
2019-04-30T04:26:44.157Z,9.33
2019-04-30T04:29:13.602Z,8.47
2019-04-30T04:31:43.173Z,8.23
2019-04-30T04:34:12.440Z,8.13
2019-04-30T04:36:43.338Z,9.20
2019-04-30T04:39:13.106Z,8.87
2019-04-30T04:41:50.566Z,8.63
2019-04-30T04:44:16.625Z,8.13
2019-04-30T04:46:46.112Z,8.00
2019-04-30T04:49:15.417Z,7.93
2019-04-30T04:51:44.770Z,8.43
2019-04-30T04:54:14.091Z,8.27
2019-04-30T04:56:43.211Z,8.07
2019-04-30T04:59:16.882Z,8.73
2019-04-30T05:01:49.037Z,8.93
2019-04-30T05:04:23.577Z,8.43
2019-04-30T05:07:00.024Z,8.97
2019-04-30T05:09:31.850Z,8.73
2019-04-30T05:12:08.157Z,8.93
2019-04-30T05:14:38.577Z,8.87
2019-04-30T05:17:13.018Z,8.80
2019-04-30T05:19:46.051Z,7.87
2019-04-30T05:22:15.215Z,8.53
2019-04-30T05:24:45.117Z,9.03
2019-04-30T05:27:14.591Z,9.30
2019-04-30T05:29:44.209Z,9.13
2019-04-30T05:32:13.376Z,10.00
2019-04-30T05:34:42.797Z,9.83
2019-04-30T05:37:13.921Z,10.27
2019-04-30T05:39:43.315Z,10.27
2019-04-30T05:42:19.635Z,10.37
2019-04-30T05:44:49.844Z,10.20
2019-04-30T05:47:32.345Z,10.50
2019-04-30T05:50:00.853Z,10.53
2019-04-30T05:52:31.246Z,11.43
2019-04-30T05:55:00.650Z,10.73
2019-04-30T05:57:31.717Z,11.40
2019-04-30T06:00:00.913Z,10.77
2019-04-30T06:02:33.696Z,11.20
2019-04-30T06:05:01.941Z,10.67
2019-04-30T06:07:31.608Z,10.70
2019-04-30T06:10:11.275Z,11.90
2019-04-30T06:12:46.713Z,10.80
2019-04-30T06:15:32.242Z,11.37
2019-04-30T06:18:10.859Z,12.30
2019-04-30T06:20:32.855Z,11.77
2019-04-30T06:23:02.776Z,13.47
2019-04-30T06:25:52.101Z,12.43
2019-04-30T06:28:04.367Z,12.33
2019-04-30T06:30:33.925Z,12.47
2019-04-30T06:33:04.555Z,12.57
2019-04-30T06:35:34.197Z,13.27
2019-04-30T06:38:03.227Z,13.17
2019-04-30T06:40:32.448Z,14.10
2019-04-30T06:43:02.237Z,14.13
2019-04-30T06:45:32.834Z,13.47
2019-04-30T06:48:04.444Z,13.90
2019-04-30T06:50:33.991Z,14.33
2019-04-30T06:53:03.107Z,14.40
2019-04-30T06:55:35.933Z,14.93
2019-04-30T06:58:12.843Z,14.63
2019-04-30T07:00:39.599Z,14.87
2019-04-30T07:03:09.635Z,15.40
2019-04-30T07:05:39.384Z,15.47
2019-04-30T07:08:36.076Z,14.90
2019-04-30T07:11:34.310Z,13.97
2019-04-30T07:14:03.726Z,14.13
2019-04-30T07:16:32.862Z,14.67
2019-04-30T07:19:01.935Z,14.00
2019-04-30T07:21:31.781Z,13.73
2019-04-30T07:24:01.161Z,12.53
2019-04-30T07:26:30.906Z,14.33
2019-04-30T07:29:02.608Z,13.03
2019-04-30T07:31:31.800Z,11.63
2019-04-30T07:34:01.429Z,11.60
2019-04-30T07:36:45.278Z,11.23
2019-04-30T07:39:02.330Z,10.43
2019-04-30T07:41:31.430Z,12.33
2019-04-30T07:44:00.950Z,10.00
2019-04-30T07:46:34.760Z,10.50
2019-04-30T07:49:00.921Z,9.30
2019-04-30T07:51:32.212Z,10.20
2019-04-30T07:54:01.288Z,10.30
2019-04-30T07:56:37.299Z,9.83
2019-04-30T07:59:02.827Z,8.53
2019-04-30T08:01:32.797Z,9.73
2019-04-30T08:04:24.359Z,8.77
2019-04-30T08:06:53.939Z,8.80
2019-04-30T08:09:23.123Z,8.57
2019-04-30T08:11:52.390Z,8.73
2019-04-30T08:14:24.350Z,9.00
2019-04-30T08:16:52.820Z,8.97
2019-04-30T08:19:25.502Z,9.20
2019-04-30T08:21:55.049Z,9.03
2019-04-30T17:45:56.015Z,7.90
2019-04-30T17:48:25.314Z,19.43
2019-04-30T17:50:54.566Z,19.97
2019-04-30T17:53:23.912Z,19.93
2019-04-30T17:55:53.805Z,19.40
2019-04-30T17:58:22.753Z,20.43
2019-04-30T18:00:55.013Z,18.40
2019-04-30T18:03:28.930Z,19.30
2019-04-30T18:05:59.214Z,21.10
2019-04-30T18:08:28.903Z,20.23
2019-04-30T18:10:58.334Z,18.03
2019-04-30T18:13:28.007Z,19.77
2019-04-30T18:16:00.276Z,18.77
2019-04-30T18:18:41.445Z,19.67
2019-04-30T18:21:23.279Z,19.93
2019-04-30T18:24:25.028Z,18.53
2019-04-30T18:26:59.087Z,20.07
2019-04-30T18:29:31.694Z,19.20
2019-04-30T18:32:01.190Z,20.10
2019-04-30T18:34:30.427Z,20.03
2019-04-30T18:36:59.613Z,19.87
2019-04-30T18:39:29.037Z,20.73
2019-04-30T18:41:58.451Z,20.47
2019-04-30T18:44:30.005Z,20.90
2019-04-30T18:46:59.094Z,21.57
2019-04-30T18:49:28.759Z,22.83
2019-04-30T18:52:00.668Z,22.77
2019-04-30T18:54:30.169Z,23.73
2019-04-30T18:56:59.507Z,24.13
2019-04-30T18:59:28.860Z,25.03
2019-04-30T19:01:58.204Z,25.20
2019-04-30T19:04:28.834Z,25.30
2019-04-30T19:07:01.583Z,25.57
2019-04-30T19:09:44.560Z,25.73
2019-04-30T19:12:35.653Z,27.47
2019-04-30T19:15:36.714Z,26.63
2019-04-30T19:18:10.112Z,27.93
2019-04-30T19:20:43.198Z,27.50
2019-04-30T19:23:12.499Z,28.80
2019-04-30T19:25:41.803Z,29.00
2019-04-30T19:28:14.244Z,29.23
2019-04-30T19:30:41.376Z,29.90
2019-04-30T19:33:10.674Z,29.67
2019-04-30T19:35:40.007Z,30.13
2019-04-30T19:38:09.285Z,28.50
2019-04-30T19:40:39.169Z,28.93
2019-04-30T19:43:08.366Z,29.30
2019-04-30T19:45:37.613Z,28.73
2019-04-30T19:48:08.924Z,28.83
2019-04-30T19:50:38.123Z,29.37
2019-04-30T19:53:08.808Z,29.80
2019-04-30T19:55:39.372Z,30.40
2019-04-30T19:58:10.669Z,31.60
2019-04-30T20:00:39.315Z,31.73
2019-04-30T20:03:09.586Z,32.73
2019-04-30T20:05:39.423Z,34.07
2019-04-30T20:08:11.006Z,35.43
2019-04-30T20:10:39.932Z,35.90
2019-04-30T20:13:10.834Z,35.50
2019-04-30T20:15:40.245Z,38.70
2019-04-30T20:18:09.272Z,39.83
2019-04-30T20:20:39.910Z,38.23
2019-04-30T20:23:08.997Z,39.47
2019-04-30T20:25:37.990Z,39.43
2019-04-30T20:28:12.027Z,41.60
2019-04-30T20:30:41.385Z,38.67
2019-04-30T20:33:12.824Z,41.00
2019-04-30T20:35:41.966Z,39.20
2019-04-30T20:38:28.645Z,40.90
2019-04-30T20:41:02.417Z,41.37
2019-04-30T20:43:28.697Z,42.57
2019-04-30T20:45:58.355Z,41.27
2019-04-30T20:48:29.953Z,40.70
2019-04-30T20:51:01.113Z,40.30
2019-04-30T20:53:30.013Z,39.03
2019-04-30T20:55:59.389Z,40.10
2019-04-30T20:58:28.790Z,40.73
2019-04-30T21:01:04.051Z,39.73
2019-04-30T21:03:36.331Z,38.83
2019-04-30T21:06:05.532Z,38.20
2019-04-30T21:08:34.604Z,38.90
2019-04-30T21:11:03.841Z,36.43
2019-04-30T21:13:32.948Z,36.90
2019-04-30T21:16:02.077Z,37.07
2019-04-30T21:18:32.540Z,36.73
2019-04-30T21:21:01.880Z,38.23
2019-04-30T21:23:32.149Z,35.80
2019-04-30T21:26:01.328Z,35.13
2019-04-30T21:28:30.321Z,35.87
2019-04-30T21:31:02.259Z,35.27
2019-04-30T21:33:38.529Z,34.00
2019-04-30T21:36:30.162Z,32.23
2019-04-30T21:38:59.716Z,34.77
2019-04-30T21:41:29.702Z,32.97
2019-04-30T21:43:58.802Z,30.67
2019-04-30T21:46:29.339Z,31.93
2019-04-30T21:48:58.789Z,29.67
2019-04-30T21:51:27.906Z,30.67
2019-04-30T21:53:57.067Z,30.53
2019-04-30T21:56:26.276Z,29.57
2019-04-30T21:58:55.161Z,28.87
2019-04-30T22:01:28.237Z,30.33
2019-04-30T22:03:57.515Z,30.27
2019-04-30T22:06:26.529Z,31.03
2019-04-30T22:08:58.617Z,29.47
2019-04-30T22:11:29.654Z,31.40
2019-04-30T22:13:58.798Z,29.70
2019-04-30T22:16:32.430Z,30.13
2019-04-30T22:19:23.652Z,29.93
2019-04-30T22:21:53.429Z,29.50
2019-04-30T22:24:22.646Z,29.20
2019-04-30T22:26:51.887Z,26.77
2019-04-30T22:29:20.703Z,28.60
2019-04-30T22:31:49.783Z,28.07
2019-04-30T22:34:18.667Z,27.10
2019-04-30T22:36:50.754Z,27.00
2019-04-30T22:39:41.510Z,27.47
2019-04-30T22:42:33.937Z,27.50
2019-04-30T22:45:04.907Z,26.47
2019-04-30T22:47:39.428Z,25.77
2019-04-30T22:50:07.508Z,26.13
2019-04-30T22:52:36.523Z,24.83
2019-04-30T22:55:05.898Z,24.27
2019-04-30T22:57:35.306Z,24.13
2019-04-30T23:00:09.706Z,24.23
2019-04-30T23:02:53.712Z,23.73
2019-04-30T23:05:22.939Z,24.73
2019-04-30T23:07:52.051Z,23.27
2019-04-30T23:10:21.526Z,24.53
2019-04-30T23:12:50.792Z,23.27
2019-04-30T23:15:21.242Z,24.10
2019-04-30T23:17:50.400Z,22.43
2019-04-30T23:20:19.659Z,21.27
2019-04-30T23:22:48.818Z,20.67
2019-04-30T23:25:18.035Z,20.00
2019-04-30T23:27:47.264Z,21.27
2019-04-30T23:30:16.467Z,19.77
2019-04-30T23:32:46.122Z,20.90
2019-04-30T23:35:15.165Z,19.63
2019-04-30T23:37:44.260Z,18.77
2019-04-30T23:40:30.908Z,20.10
2019-04-30T23:43:00.215Z,19.87
2019-04-30T23:45:29.357Z,20.33
2019-04-30T23:47:59.255Z,19.10
2019-04-30T23:50:28.221Z,19.93
2019-04-30T23:52:57.139Z,19.47
2019-04-30T23:55:26.348Z,18.87
2019-04-30T23:57:56.005Z,18.90
